Time;durP1;ratioP1;P1;durP2;ratioP2;P2;SDS_P1;SDS_P2;PMS_P1;PMS_P2;Temp;Humidity;BMP_temperature;BMP_pressure;BME280_temperature;BME280_humidity;BME280_pressure;Samples;Min_cycle;Max_cycle;Signal;HPM_P1;HPM_P2
2022/10/08 00:02:02;;;;;;;9.48;6.75;;;15.50;99.90;;;;;;2606652;54;20091;31
2022/10/08 00:04:33;;;;;;;12.02;6.78;;;15.40;99.90;;;;;;2610930;39;22289;31
2022/10/08 00:07:04;;;;;;;10.30;6.70;;;15.50;99.90;;;;;;2605796;54;20026;31
2022/10/08 00:09:39;;;;;;;9.68;6.43;;;15.30;99.90;;;;;;2624049;46;20026;31
2022/10/08 00:12:13;;;;;;;11.20;7.80;;;15.30;99.90;;;;;;2605767;54;20898;-79
2022/10/08 00:14:48;;;;;;;9.85;8.02;;;15.30;99.90;;;;;;2609706;54;20027;31
2022/10/08 00:17:19;;;;;;;10.85;7.40;;;15.10;99.90;;;;;;2605105;54;20098;31
2022/10/08 00:19:56;;;;;;;11.90;7.93;;;15.10;99.90;;;;;;2611124;54;20046;31
2022/10/08 00:22:28;;;;;;;9.68;7.78;;;15.10;99.90;;;;;;2606461;54;20242;31
2022/10/08 00:24:59;;;;;;;10.35;8.50;;;15.00;99.90;;;;;;2606393;54;20113;-75
2022/10/08 00:27:36;;;;;;;10.75;8.48;;;14.90;99.90;;;;;;2605119;54;20826;31
2022/10/08 00:30:09;;;;;;;8.07;6.88;;;14.80;99.90;;;;;;2606741;54;20194;-80
2022/10/08 00:32:44;;;;;;;9.95;8.68;;;14.80;99.90;;;;;;2614142;54;20882;-79
2022/10/08 00:35:21;;;;;;;9.27;8.10;;;14.80;99.90;;;;;;2610146;54;20018;-76
2022/10/08 00:37:52;;;;;;;10.93;9.13;;;14.70;99.90;;;;;;2607968;54;20018;31
2022/10/08 00:40:24;;;;;;;8.73;7.82;;;14.60;99.90;;;;;;2605346;54;20025;31
2022/10/08 00:43:02;;;;;;;11.02;9.38;;;14.50;99.90;;;;;;2605993;54;20049;31
2022/10/08 00:45:37;;;;;;;12.85;10.65;;;14.50;99.90;;;;;;2605742;54;20782;-78
2022/10/08 00:48:13;;;;;;;11.63;10.17;;;14.70;99.90;;;;;;2606389;54;20029;-79
2022/10/08 00:50:50;;;;;;;11.20;8.70;;;14.40;99.90;;;;;;2613077;54;20053;31
2022/10/08 00:53:21;;;;;;;12.55;9.57;;;14.50;99.90;;;;;;2605344;54;20785;31
2022/10/08 00:55:54;;;;;;;10.85;8.30;;;14.30;99.90;;;;;;2606179;46;20029;31
2022/10/08 00:58:29;;;;;;;11.18;8.15;;;14.20;99.90;;;;;;2605009;54;20913;31
2022/10/08 01:01:01;;;;;;;16.20;11.40;;;14.20;99.90;;;;;;2604094;54;20746;31
2022/10/08 01:03:34;;;;;;;13.57;10.00;;;14.20;99.90;;;;;;2609548;39;20923;31
2022/10/08 01:06:09;;;;;;;11.77;10.10;;;14.20;99.90;;;;;;2603175;54;20022;31
2022/10/08 01:08:44;;;;;;;19.37;10.87;;;14.20;99.90;;;;;;2603057;54;20034;31
2022/10/08 01:11:24;;;;;;;16.02;11.10;;;14.20;99.90;;;;;;2606011;54;21110;31
2022/10/08 01:14:05;;;;;;;13.02;9.57;;;14.20;99.90;;;;;;2623538;46;20824;31
2022/10/08 01:16:44;;;;;;;10.98;8.65;;;14.10;99.90;;;;;;2606157;46;20037;-76
2022/10/08 01:19:18;;;;;;;8.80;7.90;;;14.00;99.90;;;;;;2610292;54;20030;31
2022/10/08 01:21:56;;;;;;;9.48;7.65;;;14.10;99.90;;;;;;2604968;54;20077;31
2022/10/08 01:27:30;;;;;;;9.90;8.65;;;14.10;99.90;;;;;;2622001;46;20024;31
2022/10/08 01:30:04;;;;;;;11.25;8.77;;;14.10;99.90;;;;;;2605259;54;20849;31
2022/10/08 01:32:38;;;;;;;12.10;9.05;;;14.10;99.90;;;;;;2602989;54;20041;31
2022/10/08 01:35:14;;;;;;;13.10;7.75;;;14.10;99.90;;;;;;2605224;54;20023;31
2022/10/08 01:37:49;;;;;;;8.80;7.90;;;14.10;99.90;;;;;;2603169;54;20093;31
2022/10/08 01:40:22;;;;;;;15.52;12.10;;;14.10;99.90;;;;;;2602934;54;20072;31
2022/10/08 01:43:00;;;;;;;14.73;10.55;;;14.10;99.90;;;;;;2604990;54;20762;31
2022/10/08 01:45:34;;;;;;;12.40;11.10;;;14.10;99.90;;;;;;2605250;54;20022;31
2022/10/08 01:48:07;;;;;;;17.42;12.30;;;14.10;99.90;;;;;;2605115;54;20045;-75
2022/10/08 01:50:43;;;;;;;17.45;13.13;;;14.10;99.90;;;;;;2605726;54;20022;31
2022/10/08 01:53:17;;;;;;;12.75;11.10;;;14.10;99.90;;;;;;2621466;47;20033;31
2022/10/08 01:55:53;;;;;;;11.52;10.32;;;14.10;99.90;;;;;;2615187;47;20915;31
2022/10/08 01:58:30;;;;;;;19.45;10.32;;;14.00;99.90;;;;;;2621559;47;20026;31
2022/10/08 02:01:06;;;;;;;12.18;9.57;;;14.30;99.90;;;;;;2701597;39;20427;31
2022/10/08 02:04:31;;;;;;;12.05;9.75;;;14.00;99.90;;;;;;2604902;54;20034;31
2022/10/08 02:06:33;;;;;;;11.88;9.38;;;14.20;99.90;;;;;;2607963;54;20931;-75
2022/10/08 02:09:06;;;;;;;11.95;10.70;;;14.10;99.90;;;;;;2605188;54;20034;31
2022/10/08 02:11:39;;;;;;;13.40;11.60;;;14.10;99.90;;;;;;2607794;47;20023;31
2022/10/08 02:14:16;;;;;;;12.60;9.48;;;13.80;99.90;;;;;;2609880;54;20050;31
2022/10/08 02:16:51;;;;;;;10.40;8.77;;;14.00;99.90;;;;;;2605707;54;20041;31
2022/10/08 02:19:30;;;;;;;9.80;8.80;;;14.10;99.90;;;;;;2606800;54;20872;31
2022/10/08 02:22:05;;;;;;;10.93;9.33;;;13.90;99.90;;;;;;2614964;54;20068;31
2022/10/08 02:24:40;;;;;;;12.48;10.88;;;13.90;99.90;;;;;;2605323;54;20361;31
2022/10/08 02:27:14;;;;;;;12.07;10.45;;;14.00;99.90;;;;;;2609021;54;20089;31
2022/10/08 02:29:53;;;;;;;15.93;12.20;;;13.80;99.90;;;;;;2608816;54;21052;-79
2022/10/08 02:32:28;;;;;;;10.77;9.00;;;13.80;99.90;;;;;;2607472;54;20073;31
2022/10/08 02:35:06;;;;;;;14.63;11.50;;;13.70;99.90;;;;;;2606126;54;20834;31
2022/10/08 02:37:40;;;;;;;12.30;10.00;;;13.90;99.90;;;;;;2603742;54;20393;31
2022/10/08 02:40:17;;;;;;;10.85;9.68;;;13.70;99.90;;;;;;2623504;46;20030;31
2022/10/08 02:42:48;;;;;;;14.05;9.88;;;13.50;99.90;;;;;;2605635;54;20022;31
2022/10/08 02:45:25;;;;;;;11.95;10.45;;;13.50;99.90;;;;;;2607698;54;20956;31
2022/10/08 02:48:03;;;;;;;15.15;11.35;;;13.60;99.90;;;;;;2603747;54;20022;31
2022/10/08 02:50:36;;;;;;;12.50;10.67;;;13.40;99.90;;;;;;2603698;54;21011;31
2022/10/08 02:53:13;;;;;;;18.33;13.27;;;13.40;99.90;;;;;;2603858;54;20022;31
2022/10/08 02:55:49;;;;;;;13.70;12.18;;;13.40;99.90;;;;;;2605534;54;20029;31
2022/10/08 02:58:25;;;;;;;18.42;14.77;;;13.40;99.90;;;;;;2603410;54;20030;31
2022/10/08 03:01:05;;;;;;;13.20;11.40;;;13.40;99.90;;;;;;2603741;54;20033;31
2022/10/08 03:03:43;;;;;;;13.40;12.10;;;13.60;99.90;;;;;;2603725;54;20022;31
2022/10/08 03:06:17;;;;;;;16.10;11.65;;;13.40;99.90;;;;;;2605335;54;20180;31
2022/10/08 03:08:51;;;;;;;14.70;10.90;;;13.60;99.90;;;;;;2603426;54;20928;31
2022/10/08 03:11:23;;;;;;;14.13;11.35;;;13.50;99.90;;;;;;2605916;54;20050;31
2022/10/08 03:13:57;;;;;;;16.05;13.02;;;13.40;99.90;;;;;;2605381;54;20030;31
2022/10/08 03:16:34;;;;;;;16.55;13.45;;;13.40;99.90;;;;;;2603595;54;20033;31
2022/10/08 03:19:09;;;;;;;15.43;13.00;;;13.30;99.90;;;;;;2603246;54;20085;31
2022/10/08 03:21:45;;;;;;;16.20;13.75;;;13.40;99.90;;;;;;2622108;46;20937;31
2022/10/08 03:24:18;;;;;;;13.32;11.93;;;13.40;99.90;;;;;;2603489;54;20485;31
2022/10/08 03:26:54;;;;;;;13.10;11.70;;;13.50;99.90;;;;;;2603568;54;20030;31
2022/10/08 03:29:26;;;;;;;15.63;13.15;;;13.60;99.90;;;;;;2603540;54;20046;31
2022/10/08 03:32:00;;;;;;;14.50;12.05;;;13.50;99.90;;;;;;2603325;54;20029;31
2022/10/08 03:34:33;;;;;;;13.65;10.20;;;13.50;99.90;;;;;;2603393;54;20033;31
2022/10/08 03:37:06;;;;;;;17.00;13.13;;;13.50;99.90;;;;;;2605678;54;20049;31
2022/10/08 03:39:41;;;;;;;14.70;12.90;;;13.50;99.90;;;;;;2603527;54;20023;31
2022/10/08 03:42:16;;;;;;;15.10;12.60;;;13.30;99.90;;;;;;2622377;46;20840;31
2022/10/08 03:44:50;;;;;;;17.42;13.75;;;13.50;99.90;;;;;;2603595;54;21141;31
2022/10/08 03:47:27;;;;;;;16.23;14.50;;;13.40;99.90;;;;;;2622209;46;20149;31
2022/10/08 03:50:01;;;;;;;13.90;12.13;;;13.40;99.90;;;;;;2604718;54;20019;-79
2022/10/08 03:52:34;;;;;;;15.75;12.88;;;13.40;99.90;;;;;;2603573;54;20868;31
2022/10/08 03:55:10;;;;;;;20.25;14.50;;;13.30;99.90;;;;;;2603283;54;20786;31
2022/10/08 03:57:44;;;;;;;11.43;10.32;;;13.40;99.90;;;;;;2622179;46;20852;31
2022/10/08 04:00:17;;;;;;;11.97;10.73;;;13.30;99.90;;;;;;2603281;54;20977;31
2022/10/08 04:02:53;;;;;;;11.65;9.88;;;13.30;99.90;;;;;;2603885;46;20035;31
2022/10/08 04:05:26;;;;;;;18.13;13.00;;;13.30;99.90;;;;;;2604702;54;20847;31
2022/10/08 04:07:59;;;;;;;12.18;10.95;;;13.50;99.90;;;;;;2621968;46;20092;31
2022/10/08 04:10:33;;;;;;;13.30;11.27;;;13.30;99.90;;;;;;2603378;54;20081;31
2022/10/08 04:13:05;;;;;;;16.58;12.57;;;13.30;99.90;;;;;;2603325;54;20932;31
2022/10/08 04:15:39;;;;;;;16.00;13.13;;;13.30;99.90;;;;;;2603369;54;20937;31
2022/10/08 04:18:16;;;;;;;17.05;13.55;;;13.10;99.90;;;;;;2603492;54;20191;31
2022/10/08 04:20:51;;;;;;;15.77;12.73;;;13.40;99.90;;;;;;2603433;54;20914;31
2022/10/08 04:23:23;;;;;;;11.33;9.27;;;13.30;99.90;;;;;;2605020;54;20023;31
2022/10/08 04:25:55;;;;;;;11.50;9.88;;;13.20;99.90;;;;;;2604800;54;21066;31
2022/10/08 04:28:29;;;;;;;14.07;11.02;;;13.30;99.90;;;;;;2603029;54;20101;31
2022/10/08 04:31:07;;;;;;;13.98;11.05;;;13.40;99.90;;;;;;2605443;54;20271;31
2022/10/08 04:33:42;;;;;;;16.13;12.30;;;13.20;99.90;;;;;;2603366;54;20023;31
2022/10/08 04:36:17;;;;;;;15.90;13.00;;;13.30;99.90;;;;;;2607032;54;20184;31
2022/10/08 04:38:52;;;;;;;13.90;11.45;;;13.30;99.90;;;;;;2603173;54;20085;31
2022/10/08 04:41:24;;;;;;;14.07;12.23;;;13.30;99.90;;;;;;2604537;54;20755;31
2022/10/08 04:44:01;;;;;;;15.27;13.45;;;13.60;99.90;;;;;;2604887;54;20019;31
2022/10/08 04:46:35;;;;;;;12.90;11.55;;;13.50;99.90;;;;;;2603473;54;20050;31
2022/10/08 04:49:10;;;;;;;14.02;10.60;;;13.60;99.90;;;;;;2603538;54;20023;-84
2022/10/08 04:51:45;;;;;;;14.90;12.05;;;13.50;99.90;;;;;;2604813;54;20031;31
2022/10/08 04:54:17;;;;;;;14.32;11.18;;;13.70;99.90;;;;;;2611542;39;22243;31
2022/10/08 04:56:51;;;;;;;14.60;13.18;;;13.50;99.90;;;;;;2611978;54;20106;31
2022/10/08 04:59:25;;;;;;;14.75;12.60;;;13.50;99.90;;;;;;2605372;54;20802;31
2022/10/08 05:01:58;;;;;;;12.35;11.02;;;13.60;99.90;;;;;;2605536;54;20034;31
2022/10/08 05:04:33;;;;;;;13.20;11.05;;;13.60;99.90;;;;;;2605028;54;20777;31
2022/10/08 05:07:08;;;;;;;11.70;9.50;;;13.80;99.90;;;;;;2605010;54;20018;31
2022/10/08 05:09:41;;;;;;;11.77;10.10;;;13.60;99.90;;;;;;2605274;54;20085;31
2022/10/08 05:12:14;;;;;;;10.90;9.80;;;13.60;99.90;;;;;;2605976;54;20054;31
2022/10/08 05:14:54;;;;;;;12.85;11.55;;;13.80;99.90;;;;;;2603910;54;20026;31
2022/10/08 05:17:29;;;;;;;14.10;12.60;;;13.60;99.90;;;;;;2603953;46;20023;31
2022/10/08 05:20:07;;;;;;;15.15;13.27;;;13.60;99.90;;;;;;2603113;54;20019;31
2022/10/08 05:22:41;;;;;;;15.30;13.70;;;13.50;99.90;;;;;;2605283;54;20023;31
2022/10/08 05:25:16;;;;;;;15.45;13.80;;;13.80;99.90;;;;;;2605321;54;20028;31
2022/10/08 05:27:50;;;;;;;11.65;10.45;;;13.60;99.90;;;;;;2604198;54;20887;31
2022/10/08 05:30:25;;;;;;;13.43;12.13;;;13.80;99.90;;;;;;2604722;54;20034;31
2022/10/08 05:32:57;;;;;;;12.30;10.37;;;13.60;99.90;;;;;;2606307;54;20014;-78
2022/10/08 05:35:32;;;;;;;14.10;12.35;;;13.60;99.90;;;;;;2611242;39;21228;31
2022/10/08 05:38:04;;;;;;;13.60;11.80;;;13.70;99.90;;;;;;2603704;54;20039;31
2022/10/08 05:40:38;;;;;;;17.05;14.95;;;13.90;99.90;;;;;;2604379;54;20870;31
2022/10/08 05:43:13;;;;;;;18.63;13.80;;;13.70;99.90;;;;;;2603078;54;20029;31
2022/10/08 05:45:57;;;;;;;16.87;13.10;;;13.70;99.90;;;;;;2603248;54;20023;31
2022/10/08 05:48:32;;;;;;;14.80;12.55;;;13.80;99.90;;;;;;2604332;54;20019;31
2022/10/08 05:51:12;;;;;;;12.43;10.98;;;13.80;99.90;;;;;;2603845;54;20896;31
2022/10/08 05:53:48;;;;;;;14.18;11.23;;;13.90;99.90;;;;;;2603944;54;20030;31
2022/10/08 05:56:21;;;;;;;17.23;14.35;;;14.20;99.90;;;;;;2603673;54;20046;31
2022/10/08 05:58:54;;;;;;;13.38;12.00;;;14.10;99.90;;;;;;2605633;54;20030;31
2022/10/08 06:01:27;;;;;;;13.10;11.80;;;14.20;99.90;;;;;;2603458;54;20140;31
2022/10/08 06:04:04;;;;;;;12.35;11.05;;;14.30;99.90;;;;;;2603631;54;20030;31
2022/10/08 06:06:45;;;;;;;12.85;11.10;;;14.50;99.90;;;;;;2603800;54;20176;31
2022/10/08 06:09:20;;;;;;;11.13;9.90;;;14.80;99.90;;;;;;2622524;46;20811;31
2022/10/08 06:11:55;;;;;;;17.10;12.65;;;15.10;99.90;;;;;;2603685;54;20993;31
2022/10/08 06:14:27;;;;;;;11.63;10.43;;;15.30;99.90;;;;;;2603929;54;20027;31
2022/10/08 06:17:02;;;;;;;14.60;11.15;;;15.30;99.90;;;;;;2603629;54;20912;31
2022/10/08 06:19:36;;;;;;;15.57;13.05;;;15.40;99.90;;;;;;2624686;46;20815;31
2022/10/08 06:22:14;;;;;;;15.90;11.10;;;15.80;99.90;;;;;;2603825;54;20903;31
2022/10/08 06:24:48;;;;;;;13.45;12.10;;;15.70;99.90;;;;;;2605534;54;20022;31
2022/10/08 06:27:23;;;;;;;12.75;10.70;;;15.90;99.90;;;;;;2603768;54;20049;31
2022/10/08 06:29:57;;;;;;;13.40;11.37;;;16.10;99.90;;;;;;2603571;54;20053;31
2022/10/08 06:32:32;;;;;;;17.38;10.45;;;16.40;99.90;;;;;;2603886;54;20033;31
2022/10/08 06:35:07;;;;;;;12.50;11.07;;;16.70;99.90;;;;;;2603670;54;20860;31
2022/10/08 06:37:44;;;;;;;14.27;10.93;;;16.80;99.90;;;;;;2606521;54;20114;-77
2022/10/08 06:40:17;;;;;;;13.70;11.60;;;16.90;99.90;;;;;;2603684;54;20089;31
2022/10/08 06:42:51;;;;;;;12.80;11.50;;;17.30;99.90;;;;;;2603954;54;20065;31
2022/10/08 06:45:24;;;;;;;13.30;9.30;;;17.90;99.90;;;;;;2603460;54;20149;31
2022/10/08 06:47:57;;;;;;;13.95;11.32;;;18.10;99.90;;;;;;2606356;54;20030;-75
2022/10/08 06:50:32;;;;;;;18.63;10.00;;;18.50;99.90;;;;;;2607514;54;20023;-78
2022/10/08 06:53:09;;;;;;;11.60;9.80;;;19.00;99.90;;;;;;2606367;54;20018;-80
2022/10/08 06:55:44;;;;;;;12.93;11.55;;;19.30;99.90;;;;;;2615710;46;20975;31
2022/10/08 06:58:20;;;;;;;14.00;10.55;;;19.60;99.90;;;;;;2612996;54;20022;31
2022/10/08 07:01:06;;;;;;;13.48;10.45;;;19.90;99.90;;;;;;2603655;54;20027;31
2022/10/08 07:03:46;;;;;;;15.73;11.65;;;20.10;99.90;;;;;;2622402;46;20038;31
2022/10/08 07:06:24;;;;;;;15.48;11.70;;;20.20;99.90;;;;;;2603476;54;20839;31
2022/10/08 07:09:05;;;;;;;12.90;11.25;;;20.30;99.90;;;;;;2604916;54;20058;-78
2022/10/08 07:11:38;;;;;;;13.02;11.30;;;20.20;99.90;;;;;;2605999;46;20886;31
2022/10/08 07:14:11;;;;;;;11.52;9.93;;;20.20;99.90;;;;;;2605868;54;20054;31
2022/10/08 07:16:47;;;;;;;15.15;11.73;;;20.40;99.90;;;;;;2604737;54;20045;-77
2022/10/08 07:19:24;;;;;;;15.27;10.25;;;20.50;99.90;;;;;;2603614;54;20117;31
2022/10/08 07:22:01;;;;;;;11.52;10.32;;;20.70;99.90;;;;;;2603488;54;20023;31
2022/10/08 07:24:40;;;;;;;13.15;10.63;;;20.80;99.90;;;;;;2605218;54;21041;31
2022/10/08 07:27:18;;;;;;;12.07;10.85;;;21.00;99.90;;;;;;2614752;39;21563;-81
2022/10/08 07:29:53;;;;;;;11.15;10.05;;;21.20;99.90;;;;;;2603564;54;20089;31
2022/10/08 07:32:25;;;;;;;13.53;10.13;;;21.20;99.90;;;;;;2603343;54;20085;31
2022/10/08 07:35:00;;;;;;;18.98;11.38;;;21.30;99.90;;;;;;2604570;54;20947;31
2022/10/08 07:37:37;;;;;;;12.50;10.18;;;21.20;99.90;;;;;;2610112;54;20025;31
2022/10/08 07:40:18;;;;;;;11.35;9.85;;;21.30;99.90;;;;;;2612294;54;20857;31
2022/10/08 07:42:55;;;;;;;15.20;10.37;;;21.20;99.90;;;;;;2621887;39;20384;31
2022/10/08 07:45:30;;;;;;;15.77;9.90;;;21.40;99.90;;;;;;2603364;54;20027;31
2022/10/08 07:48:08;;;;;;;12.35;10.80;;;21.60;99.90;;;;;;2603518;54;20037;31
2022/10/08 07:50:43;;;;;;;14.75;10.68;;;21.70;99.90;;;;;;2603294;54;20046;31
2022/10/08 07:53:20;;;;;;;13.60;10.70;;;21.90;99.90;;;;;;2603440;54;20141;31
2022/10/08 07:55:59;;;;;;;15.25;11.65;;;22.10;99.90;;;;;;2603413;54;20948;31
2022/10/08 07:58:33;;;;;;;14.57;10.77;;;22.10;99.90;;;;;;2605196;54;20033;31
2022/10/08 08:01:10;;;;;;;11.18;9.15;;;22.10;99.90;;;;;;2605715;54;20026;31
2022/10/08 08:03:47;;;;;;;11.95;10.07;;;22.10;99.90;;;;;;2605643;54;20896;31
2022/10/08 08:06:22;;;;;;;9.98;8.98;;;22.00;99.90;;;;;;2605396;54;20133;31
2022/10/08 08:08:55;;;;;;;14.45;9.98;;;22.10;99.90;;;;;;2603594;54;20026;31
2022/10/08 08:11:35;;;;;;;12.65;9.85;;;22.00;99.90;;;;;;2611866;54;20081;31
2022/10/08 08:14:09;;;;;;;13.50;10.75;;;21.80;99.90;;;;;;2602941;54;20023;31
2022/10/08 08:16:46;;;;;;;12.48;9.48;;;21.70;99.90;;;;;;2604504;54;20034;-80
2022/10/08 08:19:23;;;;;;;15.40;10.38;;;21.60;99.90;;;;;;2602461;54;20811;31
2022/10/08 08:21:59;;;;;;;12.35;9.65;;;21.40;99.90;;;;;;2603533;54;20037;31
2022/10/08 08:24:34;;;;;;;;;;;21.40;99.90;;;;;;2603780;54;19942;31
2022/10/08 08:27:11;;;;;;;15.05;10.55;;;21.30;99.90;;;;;;2603554;54;20769;31
2022/10/08 08:29:48;;;;;;;16.52;10.05;;;21.20;99.90;;;;;;2607119;54;20015;31
2022/10/08 08:32:27;;;;;;;12.15;10.70;;;21.10;99.90;;;;;;2613804;54;20014;-79
2022/10/08 08:34:58;;;;;;;12.15;10.07;;;21.00;99.90;;;;;;2618595;54;20019;-79
2022/10/08 08:37:30;;;;;;;11.73;9.48;;;20.80;99.90;;;;;;2630608;54;20094;-79
2022/10/08 08:40:02;;;;;;;14.00;10.20;;;20.60;99.90;;;;;;2613853;54;20034;31
2022/10/08 08:42:45;;;;;;;14.38;10.45;;;20.50;99.90;;;;;;2616111;54;20069;31
2022/10/08 08:45:27;;;;;;;11.93;10.65;;;20.30;99.90;;;;;;2613094;54;20800;31
2022/10/08 08:50:47;;;;;;;16.15;11.98;;;20.10;99.90;;;;;;2616193;54;20025;31
2022/10/08 08:53:18;;;;;;;14.27;12.10;;;20.00;99.90;;;;;;2616057;54;21296;-76
2022/10/08 08:55:56;;;;;;;14.82;11.50;;;20.00;99.90;;;;;;2629318;46;20158;-78
2022/10/08 08:58:35;;;;;;;18.23;12.32;;;20.00;99.90;;;;;;2609951;54;20027;31
2022/10/08 09:01:14;;;;;;;15.15;12.70;;;20.00;99.90;;;;;;2613182;54;20027;31
2022/10/08 09:03:47;;;;;;;19.85;12.48;;;20.00;99.90;;;;;;2604874;54;20852;31
2022/10/08 09:06:24;;;;;;;14.35;11.77;;;20.00;99.90;;;;;;2605327;54;20889;31
2022/10/08 09:08:58;;;;;;;13.02;11.70;;;20.10;99.90;;;;;;2611463;54;20019;31
2022/10/08 09:11:34;;;;;;;13.77;10.77;;;20.00;99.90;;;;;;2613392;54;20015;31
2022/10/08 09:14:18;;;;;;;13.75;11.48;;;20.10;99.90;;;;;;2612776;54;20038;-79
2022/10/08 09:16:50;;;;;;;14.35;11.80;;;20.20;99.90;;;;;;2630345;46;20026;31
2022/10/08 09:19:28;;;;;;;16.35;11.68;;;20.20;99.90;;;;;;2618228;54;20153;-78
2022/10/08 09:22:02;;;;;;;14.35;12.10;;;20.30;99.90;;;;;;2617962;54;20962;31
2022/10/08 09:24:37;;;;;;;19.17;11.98;;;20.30;99.90;;;;;;2614572;54;20025;31
2022/10/08 09:27:13;;;;;;;15.07;12.15;;;20.40;99.90;;;;;;2614548;54;20957;-79
2022/10/08 09:29:50;;;;;;;13.30;11.55;;;20.40;99.90;;;;;;2617121;54;20018;31
2022/10/08 09:32:25;;;;;;;15.57;12.15;;;20.30;99.90;;;;;;2615944;54;20029;31
2022/10/08 09:34:58;;;;;;;15.88;11.73;;;20.20;99.90;;;;;;2624271;54;20029;31
2022/10/08 09:37:30;;;;;;;13.70;12.18;;;20.10;99.90;;;;;;2620517;54;20034;31
2022/10/08 09:40:18;;;;;;;14.10;12.60;;;20.10;99.90;;;;;;2628583;54;20034;31
2022/10/08 09:43:15;;;;;;;13.90;11.63;;;20.10;99.90;;;;;;2631040;54;20058;-79
2022/10/08 09:45:53;;;;;;;18.08;13.27;;;20.10;99.90;;;;;;2620883;54;20041;31
2022/10/08 09:48:28;;;;;;;19.83;13.15;;;20.10;99.90;;;;;;2630661;54;20030;-78
2022/10/08 09:51:02;;;;;;;;;;;20.10;99.90;;;;;;2618350;54;20026;31
2022/10/08 09:53:36;;;;;;;17.52;13.63;;;20.20;99.90;;;;;;2630909;54;19991;-78
2022/10/08 09:56:08;;;;;;;22.23;12.70;;;20.30;99.90;;;;;;2630723;54;20038;-80
2022/10/08 09:58:42;;;;;;;17.63;11.48;;;20.50;99.90;;;;;;2624464;54;20026;-79
2022/10/08 10:01:16;;;;;;;15.10;11.13;;;20.60;99.90;;;;;;2620355;54;20037;31
2022/10/08 10:03:55;;;;;;;12.63;10.48;;;20.60;99.90;;;;;;2618424;54;20015;-78
2022/10/08 10:06:29;;;;;;;16.02;11.05;;;20.80;99.90;;;;;;2623440;54;20022;-77
2022/10/08 10:09:24;;;;;;;14.82;10.43;;;20.90;99.90;;;;;;2631645;47;20057;-78
2022/10/08 10:11:56;;;;;;;14.88;11.02;;;20.90;99.90;;;;;;2624003;54;20021;-80
2022/10/08 10:14:31;;;;;;;12.93;10.45;;;21.20;99.90;;;;;;2620212;54;20066;31
2022/10/08 10:17:04;;;;;;;14.57;10.15;;;21.40;99.90;;;;;;2617947;54;20090;-79
2022/10/08 10:19:42;;;;;;;12.23;9.52;;;21.50;99.90;;;;;;2625173;54;20030;31
2022/10/08 10:22:14;;;;;;;11.45;9.75;;;21.80;99.90;;;;;;2620501;54;20027;31
2022/10/08 10:24:51;;;;;;;15.77;9.98;;;21.80;99.90;;;;;;2630636;54;19953;-79
2022/10/08 10:27:27;;;;;;;14.73;9.30;;;21.90;99.90;;;;;;2630896;54;20082;-80
2022/10/08 10:30:04;;;;;;;11.70;9.82;;;21.90;99.90;;;;;;2621262;54;20038;-79
2022/10/08 10:32:38;;;;;;;17.90;10.18;;;21.80;99.90;;;;;;2630465;54;20093;-79
2022/10/08 10:37:45;;;;;;;11.85;8.90;;;21.50;99.90;;;;;;2631236;54;20030;-78
2022/10/08 10:42:50;;;;;;;13.65;9.20;;;21.20;99.90;;;;;;2619525;54;20015;-78
2022/10/08 10:45:23;;;;;;;13.75;8.50;;;21.20;99.90;;;;;;2613470;54;20015;-79
2022/10/08 10:47:55;;;;;;;11.85;7.45;;;21.10;99.90;;;;;;2612165;54;20082;31
2022/10/08 10:50:31;;;;;;;9.65;7.50;;;20.80;99.90;;;;;;2615096;54;20073;31
2022/10/08 10:53:11;;;;;;;12.32;8.10;;;20.70;99.90;;;;;;2617455;54;20015;-80
2022/10/08 10:55:50;;;;;;;12.18;7.97;;;20.60;99.90;;;;;;2607272;54;20033;31
2022/10/08 10:58:35;;;;;;;9.73;8.32;;;20.50;99.90;;;;;;2606099;54;20027;31
2022/10/08 11:01:13;;;;;;;13.15;8.30;;;20.50;99.90;;;;;;2624356;46;20033;31
2022/10/08 11:03:48;;;;;;;11.88;8.48;;;20.30;99.90;;;;;;2613582;54;20029;31
2022/10/08 11:06:55;;;;;;;9.82;7.22;;;20.30;99.90;;;;;;2612714;54;20029;-79
2022/10/08 11:09:31;;;;;;;;;;;20.20;99.90;;;;;;2614268;54;20034;31
2022/10/08 11:12:06;;;;;;;12.98;7.97;;;20.10;99.90;;;;;;2608285;46;20785;31
2022/10/08 11:14:46;;;;;;;16.00;9.07;;;20.00;99.90;;;;;;2607920;54;20878;31
2022/10/08 11:17:36;;;;;;;13.35;7.65;;;20.00;99.90;;;;;;2624310;46;20113;31
2022/10/08 11:20:26;;;;;;;12.70;9.10;;;19.90;99.90;;;;;;2606360;54;20026;-80
2022/10/08 11:23:00;;;;;;;14.05;8.70;;;19.90;99.90;;;;;;2605047;54;20034;31
2022/10/08 11:25:39;;;;;;;13.75;9.35;;;19.80;99.90;;;;;;2612776;54;20051;31
2022/10/08 11:28:37;;;;;;;14.95;9.98;;;19.80;99.90;;;;;;2625112;46;20026;-81
2022/10/08 11:31:12;;;;;;;12.52;8.98;;;19.80;99.90;;;;;;2605588;54;20034;31
2022/10/08 11:33:50;;;;;;;14.63;8.88;;;19.90;99.90;;;;;;2621032;39;20611;-82
2022/10/08 11:36:21;;;;;;;11.43;9.13;;;19.80;99.90;;;;;;2606394;54;20901;31
2022/10/08 11:38:56;;;;;;;12.52;10.23;;;19.80;99.90;;;;;;2605754;54;20030;31
2022/10/08 11:41:34;;;;;;;13.55;9.52;;;19.70;99.90;;;;;;2605635;54;20030;-80
2022/10/08 11:44:10;;;;;;;15.70;10.25;;;19.70;99.90;;;;;;2605410;54;20053;-77
2022/10/08 11:46:42;;;;;;;13.35;9.20;;;19.70;99.90;;;;;;2605023;54;20836;31
2022/10/08 11:49:46;;;;;;;12.05;9.65;;;19.60;99.90;;;;;;2612419;54;20031;-79
2022/10/08 11:52:20;;;;;;;11.35;9.45;;;19.60;99.90;;;;;;2611341;54;20027;31
2022/10/08 11:54:56;;;;;;;15.90;9.80;;;19.50;99.90;;;;;;2611735;54;20026;31
2022/10/08 11:57:34;;;;;;;13.45;10.63;;;19.50;99.90;;;;;;2614616;54;20054;-79
2022/10/08 12:00:35;;;;;;;16.02;10.50;;;19.50;99.90;;;;;;2626364;46;20019;-79
2022/10/08 12:03:08;;;;;;;15.90;10.32;;;19.40;99.90;;;;;;2611692;54;20026;31
2022/10/08 12:05:44;;;;;;;13.60;10.15;;;19.40;99.90;;;;;;2609753;54;20046;-78
2022/10/08 12:08:51;;;;;;;13.13;10.95;;;19.40;99.90;;;;;;2613567;54;20027;31
2022/10/08 12:11:47;;;;;;;15.70;11.15;;;19.40;99.90;;;;;;2608717;54;20018;31
2022/10/08 12:14:51;;;;;;;16.13;10.40;;;19.30;99.90;;;;;;2634790;39;20413;-78
2022/10/08 12:17:25;;;;;;;14.23;11.05;;;19.30;99.90;;;;;;2613929;54;20018;31
2022/10/08 12:20:05;;;;;;;;;;;19.30;99.90;;;;;;2615990;54;20037;31
2022/10/08 12:22:44;;;;;;;15.27;12.40;;;19.30;99.90;;;;;;2617610;54;19957;31
2022/10/08 12:25:36;;;;;;;14.65;11.02;;;19.20;99.90;;;;;;2633054;46;20023;31
2022/10/08 12:28:28;;;;;;;16.67;12.57;;;19.20;99.90;;;;;;2603215;54;20027;31
2022/10/08 12:31:16;;;;;;;15.35;11.65;;;19.20;99.90;;;;;;2605615;54;20889;31
2022/10/08 12:34:21;;;;;;;18.03;13.10;;;19.20;99.90;;;;;;2604011;54;20023;31
2022/10/08 12:37:01;;;;;;;17.60;12.27;;;19.40;99.90;;;;;;2603093;54;20852;31
2022/10/08 12:39:37;;;;;;;16.92;13.15;;;19.20;99.90;;;;;;2606188;46;21335;-78
2022/10/08 12:42:15;;;;;;;15.80;12.65;;;19.10;99.90;;;;;;2608810;46;20030;31
2022/10/08 12:44:59;;;;;;;17.85;13.52;;;19.10;99.90;;;;;;2632940;46;20042;-82
2022/10/08 12:47:42;;;;;;;16.85;12.98;;;19.10;99.90;;;;;;2613163;54;20026;31
2022/10/08 12:50:34;;;;;;;18.83;14.13;;;19.10;99.90;;;;;;2615045;54;20140;31
2022/10/08 12:53:09;;;;;;;16.00;13.43;;;19.10;99.90;;;;;;2605388;54;20023;31
2022/10/08 12:55:46;;;;;;;18.35;14.20;;;19.10;99.90;;;;;;2605468;54;20474;31
2022/10/08 12:58:22;;;;;;;19.38;12.98;;;19.10;99.90;;;;;;2603669;54;20129;31
2022/10/08 13:00:56;;;;;;;;;;;19.10;99.90;;;;;;2603429;54;20851;31
2022/10/08 13:03:32;;;;;;;25.27;13.27;;;19.10;99.90;;;;;;2612367;54;19939;31
2022/10/08 13:06:31;;;;;;;17.05;13.98;;;19.00;99.90;;;;;;2603234;54;20022;31
2022/10/08 13:09:24;;;;;;;18.95;14.45;;;19.00;99.90;;;;;;2603993;46;20153;31
2022/10/08 13:12:02;;;;;;;20.48;13.32;;;19.00;99.90;;;;;;2604839;54;20030;31
2022/10/08 13:14:36;;;;;;;17.10;15.10;;;19.00;99.90;;;;;;2603185;54;20081;31
2022/10/08 13:17:29;;;;;;;24.25;15.32;;;19.00;99.90;;;;;;2603808;54;20945;-77
2022/10/08 13:20:19;;;;;;;19.30;13.57;;;19.00;99.90;;;;;;2605061;54;20022;31
2022/10/08 13:23:01;;;;;;;24.27;16.67;;;19.00;99.90;;;;;;2610878;46;20025;31
2022/10/08 13:25:41;;;;;;;20.90;16.75;;;19.00;99.90;;;;;;2603134;54;20811;31
2022/10/08 13:30:47;;;;;;;20.92;16.55;;;18.90;99.90;;;;;;2603001;54;20859;31
2022/10/08 13:33:21;;;;;;;;;;;18.80;99.90;;;;;;2603929;47;20988;31
2022/10/08 13:36:00;;;;;;;21.23;16.38;;;18.80;99.90;;;;;;2603358;54;19941;31
2022/10/08 13:38:37;;;;;;;21.58;15.95;;;18.70;99.90;;;;;;2603052;54;20026;31
2022/10/08 13:41:11;;;;;;;21.27;15.52;;;18.70;99.90;;;;;;2603285;54;20826;31
2022/10/08 13:43:47;;;;;;;22.53;16.60;;;18.60;99.90;;;;;;2603173;54;20153;31